Time;durP1;ratioP1;P1;durP2;ratioP2;P2;SDS_P1;SDS_P2;PMS_P1;PMS_P2;Temp;Humidity;BMP_temperature;BMP_pressure;BME280_temperature;BME280_humidity;BME280_pressure;Samples;Min_cycle;Max_cycle;Signal;HPM_P1;HPM_P2
2022/12/25 00:01:21;;;;;;;6.57;4.03;;;;;;;;;;4880672;29;20288;-87
2022/12/25 00:03:48;;;;;;;6.83;4.47;;;;;;;;;;4903519;29;20236;-84
2022/12/25 00:06:14;;;;;;;6.57;4.93;;;;;;;;;;4860691;29;20236;-84
2022/12/25 00:08:42;;;;;;;5.43;4.97;;;;;;;;;;4889515;29;20365;-84
2022/12/25 00:11:11;;;;;;;5.73;4.50;;;;;;;;;;4877740;29;20238;-84
2022/12/25 00:13:37;;;;;;;6.73;5.00;;;;;;;;;;4885862;29;20229;-85
2022/12/25 00:16:11;;;;;;;4.40;4.00;;;;;;;;;;4881329;29;20257;-85
2022/12/25 00:18:37;;;;;;;4.57;3.83;;;;;;;;;;4885382;29;20235;-85
2022/12/25 00:21:07;;;;;;;9.37;4.50;;;;;;;;;;4878866;29;20235;-82
2022/12/25 00:23:33;;;;;;;4.40;3.07;;;;;;;;;;4868887;29;20660;-86
2022/12/25 00:25:58;;;;;;;7.23;3.17;;;;;;;;;;4884077;29;20317;-87
2022/12/25 00:28:27;;;;;;;13.67;3.33;;;;;;;;;;4885367;29;20526;-86
2022/12/25 00:30:54;;;;;;;11.23;3.60;;;;;;;;;;4885217;29;20354;-84
2022/12/25 00:33:23;;;;;;;20.07;4.33;;;;;;;;;;4897925;29;20348;-84
2022/12/25 00:35:59;;;;;;;9.43;2.73;;;;;;;;;;4899187;29;20225;-82
2022/12/25 00:38:25;;;;;;;7.63;2.70;;;;;;;;;;4889815;29;20303;-84
2022/12/25 00:40:55;;;;;;;5.23;2.90;;;;;;;;;;4893715;29;20812;-84
2022/12/25 00:43:20;;;;;;;5.63;3.10;;;;;;;;;;4879435;29;20324;-83
2022/12/25 00:45:57;;;;;;;4.70;2.97;;;;;;;;;;4882250;29;20270;-84
2022/12/25 00:48:23;;;;;;;6.57;2.83;;;;;;;;;;4897143;29;20233;-84
2022/12/25 00:50:52;;;;;;;5.83;3.60;;;;;;;;;;4883817;29;20229;-83
2022/12/25 00:53:18;;;;;;;14.40;3.43;;;;;;;;;;4887862;29;20231;-87
2022/12/25 00:55:45;;;;;;;25.17;3.60;;;;;;;;;;4890663;29;20225;-87
2022/12/25 00:58:11;;;;;;;8.00;3.93;;;;;;;;;;4882241;29;20599;-85
2022/12/25 01:00:37;;;;;;;6.53;3.47;;;;;;;;;;4875731;29;20232;-87
2022/12/25 01:03:03;;;;;;;17.07;5.33;;;;;;;;;;4870548;29;20234;-86
2022/12/25 01:05:28;;;;;;;6.70;4.13;;;;;;;;;;4880038;29;20236;-87
2022/12/25 01:07:56;;;;;;;10.90;4.47;;;;;;;;;;4874678;29;20226;-87
2022/12/25 01:10:22;;;;;;;6.47;4.80;;;;;;;;;;4883547;29;20226;-84
2022/12/25 01:12:48;;;;;;;5.50;4.93;;;;;;;;;;4886726;29;20249;-85
2022/12/25 01:15:16;;;;;;;21.00;5.87;;;;;;;;;;4884164;29;20720;-87
2022/12/25 01:17:41;;;;;;;21.70;4.13;;;;;;;;;;4851398;29;20249;-85
2022/12/25 01:20:08;;;;;;;16.57;2.80;;;;;;;;;;4882869;29;20229;-87
2022/12/25 01:22:33;;;;;;;8.90;3.37;;;;;;;;;;4898420;29;20229;-86
2022/12/25 01:24:59;;;;;;;15.97;4.03;;;;;;;;;;4889096;29;20244;-85
2022/12/25 01:27:24;;;;;;;14.73;4.70;;;;;;;;;;4881380;29;20230;-86
2022/12/25 01:29:50;;;;;;;9.57;4.50;;;;;;;;;;4881998;29;20226;-87
2022/12/25 01:32:15;;;;;;;16.57;4.80;;;;;;;;;;4875209;29;20237;-83
2022/12/25 01:34:41;;;;;;;19.20;5.33;;;;;;;;;;4880236;29;20222;-85
2022/12/25 01:37:06;;;;;;;10.57;4.77;;;;;;;;;;4893065;29;20271;-86
2022/12/25 01:39:36;;;;;;;9.60;5.57;;;;;;;;;;4890232;29;20271;-87
2022/12/25 01:42:02;;;;;;;11.23;5.33;;;;;;;;;;4873438;29;20234;-87
2022/12/25 01:44:36;;;;;;;12.80;5.80;;;;;;;;;;4863682;29;20296;-87
2022/12/25 01:47:05;;;;;;;23.67;6.53;;;;;;;;;;4899924;29;20236;-86
2022/12/25 01:49:31;;;;;;;9.33;5.33;;;;;;;;;;4886368;29;20258;-86
2022/12/25 01:52:23;;;;;;;14.47;4.77;;;;;;;;;;4898527;29;20228;-85
2022/12/25 01:54:52;;;;;;;5.03;4.60;;;;;;;;;;4881158;29;20222;-86
2022/12/25 01:57:21;;;;;;;8.73;5.20;;;;;;;;;;4905500;29;20613;-86
2022/12/25 01:59:47;;;;;;;6.77;5.03;;;;;;;;;;4885472;29;20231;-87
2022/12/25 02:02:12;;;;;;;8.40;5.03;;;;;;;;;;4889377;29;20288;-87
2022/12/25 02:05:02;;;;;;;5.63;4.00;;;;;;;;;;4888050;29;20229;-88
2022/12/25 02:07:27;;;;;;;8.27;4.50;;;;;;;;;;4902750;29;20224;-86
2022/12/25 02:09:53;;;;;;;8.20;5.23;;;;;;;;;;4854515;29;20248;-86
2022/12/25 02:12:22;;;;;;;4.80;4.30;;;;;;;;;;4899739;29;20711;-86
2022/12/25 02:14:49;;;;;;;5.53;4.80;;;;;;;;;;4889096;29;20220;-86
2022/12/25 02:17:19;;;;;;;4.90;4.50;;;;;;;;;;4876809;29;20276;-86
2022/12/25 02:20:25;;;;;;;4.63;4.23;;;;;;;;;;4906427;29;20239;-85
2022/12/25 02:23:21;;;;;;;5.20;4.70;;;;;;;;;;4901275;29;20587;-84
2022/12/25 02:25:53;;;;;;;5.93;5.13;;;;;;;;;;4901066;29;20599;-86
2022/12/25 02:28:51;;;;;;;5.90;5.30;;;;;;;;;;4901914;29;20230;-86
2022/12/25 02:31:22;;;;;;;5.80;5.30;;;;;;;;;;4849896;29;20228;-87
2022/12/25 02:34:06;;;;;;;6.33;5.47;;;;;;;;;;4903790;29;20228;-85
2022/12/25 02:36:58;;;;;;;6.40;5.80;;;;;;;;;;4889516;29;20233;-86
2022/12/25 02:40:04;;;;;;;5.47;5.07;;;;;;;;;;4909171;29;20232;-85
2022/12/25 03:08:13;;;;;;;6.00;5.40;;;;;;;;;;4884102;29;20309;-85
2022/12/25 03:13:27;;;;;;;6.27;5.73;;;;;;;;;;4878566;29;20752;-85
2022/12/25 03:18:37;;;;;;;9.47;6.77;;;;;;;;;;4881077;29;20698;-87
2022/12/25 03:32:21;;;;;;;7.63;6.30;;;;;;;;;;4875812;29;20784;-85
2022/12/25 04:38:07;;;;;;;16.63;9.97;;;;;;;;;;4888957;29;20265;-87
2022/12/25 04:40:33;;;;;;;17.37;9.27;;;;;;;;;;4877851;29;20225;-87
2022/12/25 04:42:58;;;;;;;15.30;10.47;;;;;;;;;;4890371;29;20592;-85
2022/12/25 04:45:24;;;;;;;18.90;9.50;;;;;;;;;;4872930;29;20225;-87
2022/12/25 04:47:49;;;;;;;15.43;10.30;;;;;;;;;;4890493;29;20783;-87
2022/12/25 04:50:15;;;;;;;20.17;10.47;;;;;;;;;;4872151;29;20237;-87
2022/12/25 04:52:40;;;;;;;19.27;10.90;;;;;;;;;;4880354;29;20226;-86
2022/12/25 04:55:09;;;;;;;17.27;10.27;;;;;;;;;;4876140;29;20313;-88
2022/12/25 04:57:35;;;;;;;17.97;11.63;;;;;;;;;;4872091;29;20234;-86
2022/12/25 05:00:00;;;;;;;15.90;10.10;;;;;;;;;;4865379;29;20311;-88
2022/12/25 05:02:26;;;;;;;15.73;9.83;;;;;;;;;;4866320;29;20244;-87
2022/12/25 05:04:51;;;;;;;17.90;11.00;;;;;;;;;;4882422;29;20772;-88
2022/12/25 05:07:17;;;;;;;15.47;10.50;;;;;;;;;;4871706;29;20228;-88
2022/12/25 05:09:43;;;;;;;25.33;11.10;;;;;;;;;;4867068;29;20281;-88
2022/12/25 05:12:11;;;;;;;19.43;11.50;;;;;;;;;;4895992;29;20239;-86
2022/12/25 05:14:38;;;;;;;16.20;11.20;;;;;;;;;;4880579;29;20248;-88
2022/12/25 05:17:09;;;;;;;20.90;11.27;;;;;;;;;;4893848;29;20241;-86
2022/12/25 05:19:35;;;;;;;19.83;10.53;;;;;;;;;;4902832;29;20228;-85
2022/12/25 05:22:00;;;;;;;18.27;10.37;;;;;;;;;;4879697;29;20238;-86
2022/12/25 05:24:26;;;;;;;22.77;11.60;;;;;;;;;;4879262;29;20232;-86
2022/12/25 05:26:54;;;;;;;20.60;11.77;;;;;;;;;;4884418;29;20277;-88
2022/12/25 05:29:22;;;;;;;23.70;11.47;;;;;;;;;;4881384;29;20229;-85
2022/12/25 05:31:52;;;;;;;23.47;11.20;;;;;;;;;;4873829;29;20245;-88
2022/12/25 05:34:20;;;;;;;16.20;11.07;;;;;;;;;;4871165;29;20779;-88
2022/12/25 05:36:46;;;;;;;19.00;10.83;;;;;;;;;;4875769;29;20612;-86
2022/12/25 05:39:11;;;;;;;21.10;11.40;;;;;;;;;;4870353;29;20239;-88
2022/12/25 05:41:42;;;;;;;16.13;10.73;;;;;;;;;;4884476;29;20273;-87
2022/12/25 05:44:08;;;;;;;21.37;11.00;;;;;;;;;;4873311;29;20223;-84
2022/12/25 05:46:36;;;;;;;17.43;10.00;;;;;;;;;;4868027;29;20221;-86
2022/12/25 05:49:04;;;;;;;20.90;10.07;;;;;;;;;;4876908;29;20285;-88
2022/12/25 05:51:30;;;;;;;16.57;10.37;;;;;;;;;;4853227;29;20238;-89
2022/12/25 05:53:55;;;;;;;21.47;10.27;;;;;;;;;;4875826;29;20237;-89
2022/12/25 05:56:25;;;;;;;20.87;9.60;;;;;;;;;;4869493;29;20228;-86
2022/12/25 05:58:51;;;;;;;18.23;8.77;;;;;;;;;;4886914;29;20254;-87
2022/12/25 06:01:21;;;;;;;16.47;9.50;;;;;;;;;;4893079;29;20233;-85
2022/12/25 06:03:46;;;;;;;15.53;9.87;;;;;;;;;;4890910;29;20225;-85
2022/12/25 06:06:12;;;;;;;18.30;9.17;;;;;;;;;;4888018;29;20747;-87
2022/12/25 06:08:38;;;;;;;14.93;9.27;;;;;;;;;;4881573;29;20341;-88
2022/12/25 06:11:04;;;;;;;18.50;8.83;;;;;;;;;;4885256;29;20245;-88
2022/12/25 06:13:30;;;;;;;19.00;9.27;;;;;;;;;;4883817;29;20238;-87
2022/12/25 06:15:56;;;;;;;17.33;9.60;;;;;;;;;;4848963;29;20234;-86
2022/12/25 06:18:24;;;;;;;16.53;9.20;;;;;;;;;;4886488;29;20241;-87
2022/12/25 06:20:49;;;;;;;17.00;9.20;;;;;;;;;;4883401;29;20294;-87
2022/12/25 06:23:15;;;;;;;16.93;8.47;;;;;;;;;;4869464;29;20237;-87
2022/12/25 06:25:40;;;;;;;13.30;8.07;;;;;;;;;;4882968;29;20236;-88
2022/12/25 06:28:06;;;;;;;15.97;8.47;;;;;;;;;;4887410;29;20293;-86
2022/12/25 06:30:34;;;;;;;15.70;8.67;;;;;;;;;;4893681;29;20849;-88
2022/12/25 06:32:59;;;;;;;15.33;8.30;;;;;;;;;;4902257;29;20214;-85
2022/12/25 06:35:27;;;;;;;12.57;7.33;;;;;;;;;;4885648;29;20280;-86
2022/12/25 06:37:55;;;;;;;23.97;8.90;;;;;;;;;;4897973;29;20245;-86
2022/12/25 06:40:21;;;;;;;14.63;8.23;;;;;;;;;;4878017;29;20229;-86
2022/12/25 06:42:49;;;;;;;21.90;8.53;;;;;;;;;;4877298;29;20237;-88
2022/12/25 06:45:17;;;;;;;15.97;8.07;;;;;;;;;;4885668;29;20696;-86
2022/12/25 06:47:42;;;;;;;22.73;8.53;;;;;;;;;;4885358;29;20236;-87
2022/12/25 06:50:10;;;;;;;19.00;8.43;;;;;;;;;;4892111;29;20225;-85
2022/12/25 06:52:38;;;;;;;13.83;7.33;;;;;;;;;;4890776;29;20218;-86
2022/12/25 06:55:06;;;;;;;16.67;8.27;;;;;;;;;;4880052;29;20236;-85
2022/12/25 06:57:31;;;;;;;18.93;8.90;;;;;;;;;;4883451;29;20315;-86
2022/12/25 06:59:59;;;;;;;15.20;8.13;;;;;;;;;;4883356;29;20226;-87
2022/12/25 07:02:27;;;;;;;14.93;8.67;;;;;;;;;;4882444;29;20312;-86
2022/12/25 07:04:54;;;;;;;12.27;7.37;;;;;;;;;;4863466;29;20720;-84
2022/12/25 07:07:23;;;;;;;17.00;8.23;;;;;;;;;;4883985;29;20300;-86
2022/12/25 07:09:48;;;;;;;14.43;8.10;;;;;;;;;;4881856;29;20252;-86
2022/12/25 07:12:20;;;;;;;15.80;8.53;;;;;;;;;;4885798;29;20247;-84
2022/12/25 07:14:48;;;;;;;16.33;8.50;;;;;;;;;;4884699;29;20229;-87
2022/12/25 07:17:15;;;;;;;17.27;8.13;;;;;;;;;;4877771;29;20305;-86
2022/12/25 07:19:45;;;;;;;16.43;8.33;;;;;;;;;;4887535;29;20264;-86
2022/12/25 07:22:14;;;;;;;16.93;8.80;;;;;;;;;;4884176;29;20232;-85
2022/12/25 07:24:39;;;;;;;14.70;8.93;;;;;;;;;;4899578;28;20281;-83
2022/12/25 07:27:05;;;;;;;16.30;8.40;;;;;;;;;;4890510;29;20277;-85
2022/12/25 07:29:33;;;;;;;18.07;8.30;;;;;;;;;;4901520;28;20600;-84
2022/12/25 07:31:58;;;;;;;16.50;8.03;;;;;;;;;;4893375;29;20229;-86
2022/12/25 07:34:26;;;;;;;17.20;7.97;;;;;;;;;;4883114;29;20284;-86
2022/12/25 07:36:55;;;;;;;14.07;7.73;;;;;;;;;;4902751;29;20225;-88
2022/12/25 07:39:23;;;;;;;13.83;7.77;;;;;;;;;;4886706;29;20237;-86
2022/12/25 07:41:49;;;;;;;15.47;8.13;;;;;;;;;;4902861;29;20288;-84
2022/12/25 07:44:15;;;;;;;18.70;8.33;;;;;;;;;;4890636;29;20257;-84
2022/12/25 07:46:40;;;;;;;14.20;8.07;;;;;;;;;;4872140;28;20240;-84
2022/12/25 07:49:08;;;;;;;13.93;7.67;;;;;;;;;;4891396;29;20221;-84
2022/12/25 07:51:34;;;;;;;15.10;8.00;;;;;;;;;;4875202;29;20233;-87
2022/12/25 07:54:07;;;;;;;15.97;8.03;;;;;;;;;;4885826;29;20235;-87
2022/12/25 07:56:33;;;;;;;13.03;7.87;;;;;;;;;;4885575;29;20241;-85
2022/12/25 07:58:59;;;;;;;11.37;7.10;;;;;;;;;;4892280;29;20230;-87
2022/12/25 08:01:27;;;;;;;17.03;7.23;;;;;;;;;;4884393;29;20285;-85
2022/12/25 08:03:59;;;;;;;17.63;7.33;;;;;;;;;;4880767;29;20225;-88
2022/12/25 08:06:28;;;;;;;17.40;8.07;;;;;;;;;;4886160;29;20285;-87
2022/12/25 08:08:59;;;;;;;14.93;7.93;;;;;;;;;;4890116;29;20233;-84
2022/12/25 08:11:25;;;;;;;16.03;7.30;;;;;;;;;;4892616;29;20229;-85
2022/12/25 08:13:50;;;;;;;18.87;7.73;;;;;;;;;;4886713;29;20633;-87
2022/12/25 08:16:16;;;;;;;12.03;6.60;;;;;;;;;;4869771;29;20233;-87
2022/12/25 08:18:42;;;;;;;12.20;7.13;;;;;;;;;;4872145;29;20225;-88
2022/12/25 08:21:09;;;;;;;9.50;6.67;;;;;;;;;;4887702;29;20240;-86
2022/12/25 08:23:39;;;;;;;19.00;7.20;;;;;;;;;;4884917;29;20225;-88
2022/12/25 08:26:05;;;;;;;18.77;7.80;;;;;;;;;;4875983;29;20233;-88
2022/12/25 08:28:31;;;;;;;13.73;6.93;;;;;;;;;;4890422;29;20313;-88
2022/12/25 08:30:56;;;;;;;12.43;6.77;;;;;;;;;;4888637;29;20305;-87
2022/12/25 08:33:22;;;;;;;13.10;6.80;;;;;;;;;;4855607;29;20274;-87
2022/12/25 08:35:50;;;;;;;12.67;6.60;;;;;;;;;;4886977;29;20286;-86
2022/12/25 08:38:17;;;;;;;13.70;7.23;;;;;;;;;;4895874;29;20233;-84
2022/12/25 08:40:43;;;;;;;11.20;7.10;;;;;;;;;;4898766;29;20577;-87
2022/12/25 08:43:11;;;;;;;13.07;6.57;;;;;;;;;;4875102;29;20241;-87
2022/12/25 08:45:39;;;;;;;12.77;6.53;;;;;;;;;;4872525;29;20230;-87
2022/12/25 08:48:07;;;;;;;10.47;6.30;;;;;;;;;;4886638;29;20233;-86
2022/12/25 08:50:34;;;;;;;13.57;6.77;;;;;;;;;;4885283;29;20232;-88
2022/12/25 08:53:00;;;;;;;11.33;6.07;;;;;;;;;;4889935;29;20286;-87
2022/12/25 08:55:29;;;;;;;8.20;6.40;;;;;;;;;;4889160;29;20851;-84
2022/12/25 08:57:57;;;;;;;12.30;6.67;;;;;;;;;;4900719;29;20279;-84
2022/12/25 09:00:25;;;;;;;14.47;6.50;;;;;;;;;;4883365;29;20241;-84
2022/12/25 09:02:51;;;;;;;10.23;5.93;;;;;;;;;;4887089;29;20225;-87
2022/12/25 09:05:19;;;;;;;10.43;6.00;;;;;;;;;;4889188;29;20213;-84
2022/12/25 09:07:47;;;;;;;12.90;6.27;;;;;;;;;;4894854;29;20638;-86
2022/12/25 09:10:12;;;;;;;13.37;6.30;;;;;;;;;;4884204;29;20230;-86
2022/12/25 09:12:38;;;;;;;12.53;6.17;;;;;;;;;;4894982;29;20216;-84
2022/12/25 09:15:04;;;;;;;13.43;6.43;;;;;;;;;;4893889;29;20305;-84
2022/12/25 09:17:30;;;;;;;16.03;6.43;;;;;;;;;;4889581;29;20229;-85
2022/12/25 09:20:00;;;;;;;12.10;5.70;;;;;;;;;;4893112;29;20304;-87
2022/12/25 09:22:25;;;;;;;11.03;5.83;;;;;;;;;;4861352;29;20243;-86
2022/12/25 09:24:53;;;;;;;9.40;6.17;;;;;;;;;;4896788;29;20229;-87
2022/12/25 09:27:18;;;;;;;11.20;5.70;;;;;;;;;;4886566;29;20225;-86
2022/12/25 09:29:46;;;;;;;9.70;5.70;;;;;;;;;;4881828;29;20225;-84
2022/12/25 09:32:12;;;;;;;9.63;5.70;;;;;;;;;;4885920;29;20228;-88
2022/12/25 09:34:37;;;;;;;19.37;6.10;;;;;;;;;;4888127;29;20271;-87
2022/12/25 09:37:03;;;;;;;17.33;6.13;;;;;;;;;;4871714;29;20230;-86
2022/12/25 09:39:29;;;;;;;11.20;5.80;;;;;;;;;;4885034;29;20236;-87
2022/12/25 09:42:00;;;;;;;12.67;5.33;;;;;;;;;;4885344;29;20451;-87
2022/12/25 09:44:32;;;;;;;9.37;5.50;;;;;;;;;;4889391;29;20228;-87
2022/12/25 09:47:05;;;;;;;13.63;6.10;;;;;;;;;;4888533;29;20241;-86
2022/12/25 09:49:53;;;;;;;13.97;6.10;;;;;;;;;;4861209;29;20241;-86
2022/12/25 09:52:24;;;;;;;10.83;5.80;;;;;;;;;;4902292;29;20232;-87
2022/12/25 09:55:04;;;;;;;12.47;5.83;;;;;;;;;;4899069;29;20249;-86
2022/12/25 09:57:31;;;;;;;12.00;7.37;;;;;;;;;;4870135;29;20723;-86
2022/12/25 09:59:56;;;;;;;13.20;8.70;;;;;;;;;;4866505;29;20238;-85
2022/12/25 10:02:58;;;;;;;12.73;7.30;;;;;;;;;;4891628;29;20277;-87
2022/12/25 10:06:09;;;;;;;15.30;7.07;;;;;;;;;;4889132;29;20245;-87
2022/12/25 10:08:54;;;;;;;13.10;5.87;;;;;;;;;;4880033;29;20257;-84
2022/12/25 10:11:41;;;;;;;15.00;6.43;;;;;;;;;;4912813;29;20233;-84
2022/12/25 10:14:18;;;;;;;8.73;5.30;;;;;;;;;;4899707;29;20212;-84
2022/12/25 10:17:03;;;;;;;12.77;5.90;;;;;;;;;;4903109;29;20220;-84
2022/12/25 10:19:59;;;;;;;12.97;5.40;;;;;;;;;;4903525;29;20233;-84
2022/12/25 10:22:34;;;;;;;15.90;6.03;;;;;;;;;;4894303;29;20319;-84
2022/12/25 10:25:00;;;;;;;9.30;5.27;;;;;;;;;;4895518;29;20229;-81
2022/12/25 10:27:30;;;;;;;9.27;5.37;;;;;;;;;;4890637;29;20280;-85
2022/12/25 10:29:55;;;;;;;13.47;5.37;;;;;;;;;;4880461;29;20241;-84
2022/12/25 10:32:21;;;;;;;12.67;5.13;;;;;;;;;;4887906;29;20236;-85
2022/12/25 10:34:51;;;;;;;11.63;5.60;;;;;;;;;;4889792;29;20225;-87
2022/12/25 10:37:19;;;;;;;11.67;5.43;;;;;;;;;;4884348;29;20230;-87
2022/12/25 10:39:45;;;;;;;10.37;4.93;;;;;;;;;;4889157;29;20241;-86
2022/12/25 10:42:18;;;;;;;10.43;4.60;;;;;;;;;;4872299;29;20228;-85
2022/12/25 10:45:00;;;;;;;10.90;5.00;;;;;;;;;;4879921;29;20249;-85
2022/12/25 10:47:41;;;;;;;8.67;4.53;;;;;;;;;;4878512;29;20225;-86
2022/12/25 10:50:27;;;;;;;10.30;5.17;;;;;;;;;;4857709;29;20422;-86
2022/12/25 10:52:55;;;;;;;7.77;4.20;;;;;;;;;;4882124;29;20258;-85
2022/12/25 10:55:21;;;;;;;18.67;5.53;;;;;;;;;;4881161;29;20247;-84
2022/12/25 10:57:46;;;;;;;10.10;4.97;;;;;;;;;;4886419;29;20231;-87
2022/12/25 11:00:23;;;;;;;11.20;4.87;;;;;;;;;;4873941;29;20767;-87
2022/12/25 11:02:51;;;;;;;13.87;5.10;;;;;;;;;;4903930;29;20220;-87
2022/12/25 11:05:32;;;;;;;11.70;5.30;;;;;;;;;;4872457;29;20227;-85
2022/12/25 11:08:04;;;;;;;9.47;4.47;;;;;;;;;;4892127;29;20252;-86
2022/12/25 11:10:36;;;;;;;9.97;4.80;;;;;;;;;;4855097;29;20232;-84
2022/12/25 11:13:05;;;;;;;10.63;4.33;;;;;;;;;;4901009;29;20711;-84
2022/12/25 11:15:37;;;;;;;10.07;4.23;;;;;;;;;;4894703;29;20229;-82
2022/12/25 11:18:03;;;;;;;10.53;5.50;;;;;;;;;;4896102;29;20228;-82
2022/12/25 11:20:29;;;;;;;11.80;5.37;;;;;;;;;;4894816;29;20608;-85
2022/12/25 11:22:57;;;;;;;11.40;5.27;;;;;;;;;;4897267;28;20220;-81
2022/12/25 11:25:24;;;;;;;8.33;4.00;;;;;;;;;;4901708;28;20297;-81
2022/12/25 11:28:01;;;;;;;9.17;4.57;;;;;;;;;;4895463;29;20213;-82
2022/12/25 11:30:31;;;;;;;14.20;5.03;;;;;;;;;;4906081;29;20242;-81
2022/12/25 11:33:03;;;;;;;9.00;4.80;;;;;;;;;;4893384;28;20242;-80
2022/12/25 11:35:39;;;;;;;10.03;5.40;;;;;;;;;;4908682;28;20228;-81
2022/12/25 11:38:06;;;;;;;10.63;4.73;;;;;;;;;;4901674;29;20206;-82
2022/12/25 11:40:40;;;;;;;7.57;4.87;;;;;;;;;;4902874;29;20251;-83
2022/12/25 11:43:18;;;;;;;11.53;5.73;;;;;;;;;;4876740;29;20236;-86
2022/12/25 11:45:47;;;;;;;13.83;4.93;;;;;;;;;;4903045;29;20215;-86
2022/12/25 11:48:17;;;;;;;11.87;4.93;;;;;;;;;;4870471;29;20237;-85
2022/12/25 11:50:50;;;;;;;9.73;5.40;;;;;;;;;;4893154;29;20235;-85
2022/12/25 11:53:20;;;;;;;9.17;5.10;;;;;;;;;;4879888;29;20284;-84
2022/12/25 11:55:53;;;;;;;8.53;4.87;;;;;;;;;;4901258;29;20232;-86
2022/12/25 11:58:19;;;;;;;11.13;5.53;;;;;;;;;;4891912;29;20316;-86
2022/12/25 12:00:47;;;;;;;9.87;4.83;;;;;;;;;;4901507;29;20229;-85
2022/12/25 12:03:19;;;;;;;6.77;5.17;;;;;;;;;;4884877;29;20293;-86
2022/12/25 12:05:54;;;;;;;12.93;4.80;;;;;;;;;;4889708;29;20233;-87
2022/12/25 12:08:23;;;;;;;10.57;5.80;;;;;;;;;;4880618;29;20240;-88
2022/12/25 12:11:16;;;;;;;8.90;4.90;;;;;;;;;;4883123;29;20236;-87
2022/12/25 12:14:19;;;;;;;9.27;5.13;;;;;;;;;;4897265;29;20277;-86
2022/12/25 12:16:44;;;;;;;11.13;5.00;;;;;;;;;;4901780;29;20227;-86
2022/12/25 12:19:24;;;;;;;12.90;5.07;;;;;;;;;;4885853;29;20212;-87
2022/12/25 12:21:54;;;;;;;11.40;5.63;;;;;;;;;;4879933;29;20236;-85
2022/12/25 12:24:20;;;;;;;8.87;4.87;;;;;;;;;;4880127;29;20256;-86
2022/12/25 12:26:46;;;;;;;12.27;5.40;;;;;;;;;;4874908;29;20244;-86
2022/12/25 12:29:26;;;;;;;8.60;5.50;;;;;;;;;;4883518;29;20629;-84
2022/12/25 12:31:58;;;;;;;11.27;5.47;;;;;;;;;;4903351;29;20236;-86
2022/12/25 12:34:46;;;;;;;13.07;5.43;;;;;;;;;;4888662;29;20225;-85
2022/12/25 12:37:19;;;;;;;11.63;5.10;;;;;;;;;;4889440;29;20280;-86
2022/12/25 12:39:49;;;;;;;10.63;5.57;;;;;;;;;;4900001;29;20293;-85
2022/12/25 12:42:16;;;;;;;10.80;5.90;;;;;;;;;;4875867;29;20276;-87
2022/12/25 12:44:44;;;;;;;11.57;8.90;;;;;;;;;;4887011;29;20310;-87
2022/12/25 12:47:39;;;;;;;23.50;21.10;;;;;;;;;;4894448;29;20299;-87
2022/12/25 12:50:27;;;;;;;15.23;10.37;;;;;;;;;;4874959;29;20235;-86
2022/12/25 12:52:53;;;;;;;11.60;6.93;;;;;;;;;;4890574;29;20225;-86
2022/12/25 12:55:30;;;;;;;10.97;6.80;;;;;;;;;;4899383;29;20235;-87
2022/12/25 12:58:03;;;;;;;8.63;5.70;;;;;;;;;;4874626;29;20261;-85
2022/12/25 13:01:01;;;;;;;8.87;5.37;;;;;;;;;;4888705;29;20221;-86
2022/12/25 13:04:08;;;;;;;7.77;5.47;;;;;;;;;;4885362;29;20217;-87
2022/12/25 13:07:02;;;;;;;9.03;5.60;;;;;;;;;;4911448;29;20244;-86
2022/12/25 13:09:46;;;;;;;8.90;5.40;;;;;;;;;;4902468;29;20252;-88
2022/12/25 13:12:13;;;;;;;12.20;5.83;;;;;;;;;;4882153;29;20232;-88
2022/12/25 13:14:48;;;;;;;13.53;5.53;;;;;;;;;;4893379;29;20233;-88
2022/12/25 13:17:21;;;;;;;9.77;5.53;;;;;;;;;;4883861;29;20706;-87
2022/12/25 13:19:59;;;;;;;7.63;5.80;;;;;;;;;;4882213;29;20224;-85
2022/12/25 13:22:28;;;;;;;9.63;5.37;;;;;;;;;;4869497;29;20224;-85
2022/12/25 13:24:55;;;;;;;7.37;5.40;;;;;;;;;;4903483;29;20312;-83
2022/12/25 13:27:24;;;;;;;7.33;5.17;;;;;;;;;;4877632;29;21146;-85
2022/12/25 13:29:50;;;;;;;7.03;5.07;;;;;;;;;;4890660;29;20225;-84
2022/12/25 13:32:29;;;;;;;11.43;4.87;;;;;;;;;;4903939;29;20229;-85
2022/12/25 13:34:55;;;;;;;12.07;5.43;;;;;;;;;;4900719;29;20267;-82
2022/12/25 13:37:26;;;;;;;8.87;5.40;;;;;;;;;;4882554;29;20245;-82
2022/12/25 13:39:55;;;;;;;8.50;5.53;;;;;;;;;;4871232;29;20225;-87
2022/12/25 13:42:22;;;;;;;6.67;4.90;;;;;;;;;;4890856;29;20255;-86
2022/12/25 13:45:12;;;;;;;6.53;5.17;;;;;;;;;;4877808;29;20230;-86
2022/12/25 13:47:41;;;;;;;7.60;5.10;;;;;;;;;;4911411;29;20296;-85
2022/12/25 13:50:25;;;;;;;7.53;5.30;;;;;;;;;;4873045;29;20344;-86
2022/12/25 13:52:54;;;;;;;7.53;4.67;;;;;;;;;;4907975;29;20239;-84
2022/12/25 13:55:21;;;;;;;9.07;5.50;;;;;;;;;;4873486;29;20249;-82
2022/12/25 13:57:56;;;;;;;8.60;4.67;;;;;;;;;;4887307;29;20236;-85
2022/12/25 14:00:23;;;;;;;11.40;5.80;;;;;;;;;;4883350;29;20233;-86
2022/12/25 14:02:48;;;;;;;11.07;5.90;;;;;;;;;;4899451;29;20528;-86
2022/12/25 14:05:31;;;;;;;8.93;5.43;;;;;;;;;;4883130;29;20228;-85
2022/12/25 14:07:58;;;;;;;11.07;5.07;;;;;;;;;;4902246;29;20232;-86
2022/12/25 14:10:28;;;;;;;9.90;5.40;;;;;;;;;;4878324;29;20270;-86
2022/12/25 14:12:55;;;;;;;12.13;5.77;;;;;;;;;;4874955;29;20242;-87
2022/12/25 14:15:21;;;;;;;8.77;4.80;;;;;;;;;;4887050;29;20229;-87
2022/12/25 14:17:50;;;;;;;8.40;5.20;;;;;;;;;;4880819;29;20779;-87
2022/12/25 14:20:25;;;;;;;7.27;4.93;;;;;;;;;;4903216;29;20225;-87
2022/12/25 14:22:55;;;;;;;8.10;5.90;;;;;;;;;;4869860;29;20235;-84
2022/12/25 14:25:21;;;;;;;7.90;5.27;;;;;;;;;;4883564;29;20224;-85
2022/12/25 14:27:50;;;;;;;8.03;5.47;;;;;;;;;;4871665;29;20233;-86
2022/12/25 14:30:17;;;;;;;6.97;5.10;;;;;;;;;;4884032;29;20248;-87
2022/12/25 14:32:46;;;;;;;5.53;5.03;;;;;;;;;;4904426;29;20224;-85
2022/12/25 14:35:14;;;;;;;9.10;6.00;;;;;;;;;;4884237;29;20595;-87
2022/12/25 14:38:39;;;;;;;12.43;5.87;;;;;;;;;;4878769;29;20362;-86
2022/12/25 14:42:20;;;;;;;6.63;5.40;;;;;;;;;;4891091;29;20239;-86
2022/12/25 14:45:32;;;;;;;7.47;5.30;;;;;;;;;;4889884;29;20264;-82
2022/12/25 14:48:31;;;;;;;7.40;5.70;;;;;;;;;;4901355;29;20250;-86
2022/12/25 14:51:33;;;;;;;7.20;5.50;;;;;;;;;;4868058;29;20303;-85
2022/12/25 14:54:05;;;;;;;7.90;5.37;;;;;;;;;;4805847;29;20235;-85
2022/12/25 14:56:40;;;;;;;7.13;5.90;;;;;;;;;;4809278;29;20249;-87
2022/12/25 15:37:09;;;;;;;6.37;5.23;;;;;;;;;;4927956;29;20207;-86
2022/12/25 15:39:35;;;;;;;10.33;5.43;;;;;;;;;;4907209;29;20281;-85
2022/12/25 15:42:14;;;;;;;7.87;6.03;;;;;;;;;;4891366;29;20301;-86
2022/12/25 15:44:45;;;;;;;8.73;5.87;;;;;;;;;;4875669;29;20239;-88
2022/12/25 15:47:12;;;;;;;8.97;5.87;;;;;;;;;;4877764;29;20229;-87
2022/12/25 15:49:37;;;;;;;9.50;6.27;;;;;;;;;;4897131;29;20225;-87
2022/12/25 15:52:05;;;;;;;10.50;5.97;;;;;;;;;;4877124;29;20281;-86
2022/12/25 15:54:31;;;;;;;9.87;5.77;;;;;;;;;;4886139;29;20279;-88
2022/12/25 15:56:59;;;;;;;7.00;5.50;;;;;;;;;;4868729;29;20320;-87
2022/12/25 15:59:27;;;;;;;10.00;5.83;;;;;;;;;;4867583;29;20352;-87
2022/12/25 16:01:59;;;;;;;9.23;6.53;;;;;;;;;;4860770;29;20236;-88
2022/12/25 16:04:30;;;;;;;9.70;6.80;;;;;;;;;;4862522;29;20589;-87
2022/12/25 16:06:58;;;;;;;7.33;6.60;;;;;;;;;;4879630;29;20245;-87
2022/12/25 16:09:26;;;;;;;8.27;6.63;;;;;;;;;;4889792;29;20715;-87
2022/12/25 16:11:55;;;;;;;11.90;7.10;;;;;;;;;;4882318;29;20269;-86
2022/12/25 16:14:32;;;;;;;11.07;7.40;;;;;;;;;;4865067;29;20699;-87
2022/12/25 16:17:02;;;;;;;8.97;6.37;;;;;;;;;;4893635;29;20259;-86
2022/12/25 16:19:35;;;;;;;9.23;7.17;;;;;;;;;;4885605;29;20304;-87
2022/12/25 16:22:13;;;;;;;9.23;7.37;;;;;;;;;;4886171;29;20259;-85
2022/12/25 16:24:38;;;;;;;9.83;7.50;;;;;;;;;;4890605;29;20274;-87
2022/12/25 16:27:10;;;;;;;8.33;7.50;;;;;;;;;;4869862;29;20220;-86
2022/12/25 16:29:38;;;;;;;8.80;7.93;;;;;;;;;;4874118;29;20216;-86
2022/12/25 16:32:03;;;;;;;9.23;7.60;;;;;;;;;;4885510;29;20289;-85
2022/12/25 16:34:30;;;;;;;8.37;7.57;;;;;;;;;;4877341;29;20221;-85
2022/12/25 16:37:16;;;;;;;9.87;7.40;;;;;;;;;;4866882;29;20233;-86
2022/12/25 16:39:41;;;;;;;9.00;7.87;;;;;;;;;;4898075;29;20390;-87
2022/12/25 16:42:11;;;;;;;9.07;8.17;;;;;;;;;;4882232;29;20657;-86
2022/12/25 16:44:39;;;;;;;8.97;8.07;;;;;;;;;;4872293;29;20240;-85
2022/12/25 16:47:07;;;;;;;9.90;7.80;;;;;;;;;;4886934;29;20324;-86
2022/12/25 16:49:33;;;;;;;8.97;8.07;;;;;;;;;;4868484;29;20227;-88
2022/12/25 16:52:01;;;;;;;8.40;7.57;;;;;;;;;;4889200;29;20221;-88
2022/12/25 16:54:26;;;;;;;10.40;7.67;;;;;;;;;;4865031;29;20235;-86
2022/12/25 16:56:55;;;;;;;9.03;7.23;;;;;;;;;;4886526;29;20232;-86
2022/12/25 16:59:27;;;;;;;8.63;7.43;;;;;;;;;;4876696;29;20305;-86
2022/12/25 17:01:57;;;;;;;8.03;7.00;;;;;;;;;;4877713;29;20748;-87
2022/12/25 17:04:24;;;;;;;7.97;6.97;;;;;;;;;;4887466;29;20259;-86
2022/12/25 17:06:52;;;;;;;10.50;7.00;;;;;;;;;;4879412;29;20228;-87
2022/12/25 17:09:18;;;;;;;10.63;8.43;;;;;;;;;;4861899;29;20308;-87
2022/12/25 17:11:46;;;;;;;7.60;6.90;;;;;;;;;;4886982;29;20249;-87
2022/12/25 17:14:13;;;;;;;9.40;8.33;;;;;;;;;;4887738;29;20323;-88
2022/12/25 17:16:43;;;;;;;13.90;11.43;;;;;;;;;;4891027;29;20602;-88
2022/12/25 17:19:18;;;;;;;12.47;11.23;;;;;;;;;;4867155;29;20232;-88